Time;durP1;ratioP1;P1;durP2;ratioP2;P2;SDS_P1;SDS_P2;PMS_P1;PMS_P2;Temp;Humidity;BMP_temperature;BMP_pressure;BME280_temperature;BME280_humidity;BME280_pressure;Samples;Min_cycle;Max_cycle;Signal;HPM_P1;HPM_P2
2021/01/01 00:00:08;;;;;;;4.73;2.60;;;;;;;4.13;89.62;99998.63;5032964;28;20459;-69
2021/01/01 00:02:34;;;;;;;4.10;2.40;;;;;;;4.08;89.19;99995.97;5032553;28;20590;-69
2021/01/01 00:05:01;;;;;;;3.90;3.60;;;;;;;4.06;88.50;99998.09;5032505;28;21046;-68
2021/01/01 00:07:27;;;;;;;3.70;2.00;;;;;;;4.00;88.42;99996.53;5032835;28;20438;-69
2021/01/01 00:09:53;;;;;;;2.83;2.63;;;;;;;4.02;88.40;100003.19;5036659;28;20456;-67
2021/01/01 00:12:19;;;;;;;13.70;4.47;;;;;;;4.03;88.20;99999.47;5036541;28;20443;-68
2021/01/01 00:14:46;;;;;;;4.60;3.77;;;;;;;4.05;88.43;99999.19;5036424;28;20888;-69
2021/01/01 00:17:12;;;;;;;11.43;2.53;;;;;;;4.00;88.69;99999.19;5036169;28;20447;-68
2021/01/01 00:19:38;;;;;;;2.03;1.90;;;;;;;4.03;88.68;99998.66;5036404;28;20451;-69
2021/01/01 00:22:10;;;;;;;3.37;2.63;;;;;;;4.01;88.26;99998.91;5036034;28;20482;-68
2021/01/01 00:24:36;;;;;;;6.33;1.90;;;;;;;3.97;88.06;99999.72;5036425;28;20467;-68
2021/01/01 00:27:02;;;;;;;2.73;1.47;;;;;;;3.94;87.99;99995.75;5036213;28;20446;-68
2021/01/01 00:29:28;;;;;;;1.63;1.53;;;;;;;3.93;88.21;99996.00;5036618;28;20446;-69
2021/01/01 00:31:55;;;;;;;1.80;1.33;;;;;;;3.92;88.01;100002.44;5036394;28;20470;-68
2021/01/01 00:34:21;;;;;;;1.60;0.63;;;;;;;3.92;88.98;99999.75;5037413;28;20525;-68
2021/01/01 00:36:47;;;;;;;0.80;0.60;;;;;;;3.97;89.38;99999.72;5036143;28;20454;-68
2021/01/01 00:39:13;;;;;;;1.23;1.10;;;;;;;4.03;90.15;99998.66;5035810;28;20451;-68
2021/01/01 00:41:40;;;;;;;4.87;1.60;;;;;;;4.12;89.66;99998.88;5035691;28;20483;-70
2021/01/01 00:44:07;;;;;;;3.40;2.43;;;;;;;4.13;89.95;99998.63;5035625;28;20470;-68
2021/01/01 00:46:33;;;;;;;1.37;0.83;;;;;;;4.16;90.02;100005.31;5035782;28;20502;-69
2021/01/01 00:49:00;;;;;;;1.03;1.00;;;;;;;4.21;89.39;100000.75;5035902;28;20473;-68
2021/01/01 00:51:27;;;;;;;1.90;0.80;;;;;;;4.22;89.55;100012.28;5035759;28;20481;-72
2021/01/01 00:53:53;;;;;;;5.23;1.23;;;;;;;4.20;89.67;99998.31;5035591;28;20435;-68
2021/01/01 00:56:20;;;;;;;34.37;2.77;;;;;;;4.23;89.45;99998.59;5035785;28;20447;-69
2021/01/01 00:58:49;;;;;;;2.23;1.00;;;;;;;4.18;89.82;100000.50;5035674;28;20793;-68
2021/01/01 01:01:16;;;;;;;3.00;1.40;;;;;;;4.23;89.47;99993.22;5035672;28;20446;-68
2021/01/01 01:03:42;;;;;;;0.97;0.97;;;;;;;4.20;89.17;99991.09;5035515;28;20501;-69
2021/01/01 01:06:09;;;;;;;6.80;3.83;;;;;;;4.14;88.43;99989.50;5035502;28;20443;-68
2021/01/01 01:08:36;;;;;;;19.67;1.70;;;;;;;4.07;88.16;99994.34;5035623;28;20436;-68
2021/01/01 01:11:02;;;;;;;1.63;1.53;;;;;;;4.08;87.48;99995.16;5035500;28;20479;-69
2021/01/01 01:13:29;;;;;;;1.57;1.47;;;;;;;4.03;86.83;99987.94;5035535;28;20475;-67
2021/01/01 01:15:55;;;;;;;3.07;1.67;;;;;;;4.05;86.86;99994.63;5035306;28;20844;-68
2021/01/01 01:18:21;;;;;;;4.60;2.00;;;;;;;4.01;87.23;99998.91;5034912;28;20439;-68
2021/01/01 01:20:47;;;;;;;21.53;5.17;;;;;;;4.01;87.33;100003.47;5034879;28;20948;-68
2021/01/01 01:23:14;;;;;;;4.10;2.57;;;;;;;4.03;86.77;99993.31;5034946;28;20908;-69
2021/01/01 01:25:40;;;;;;;3.57;1.40;;;;;;;3.94;86.71;99985.03;5035197;28;20909;-68
2021/01/01 01:28:07;;;;;;;1.77;1.67;;;;;;;3.93;87.01;99987.94;5035944;28;20452;-68
2021/01/01 01:30:33;;;;;;;1.00;0.97;;;;;;;3.99;87.03;99985.00;5034963;28;20961;-70
2021/01/01 01:32:59;;;;;;;0.63;0.50;;;;;;;3.94;86.38;99989.56;5034979;28;20439;-70
2021/01/01 01:35:25;;;;;;;1.07;1.07;;;;;;;3.89;86.66;99998.41;5035272;28;20498;-70
2021/01/01 01:37:51;;;;;;;3.63;2.07;;;;;;;3.89;87.14;99992.25;5036515;28;20459;-67
2021/01/01 01:40:19;;;;;;;3.53;1.67;;;;;;;3.97;87.45;99994.38;5035548;28;20447;-68
2021/01/01 01:42:45;;;;;;;1.37;1.20;;;;;;;4.02;87.71;100000.50;5034766;28;20482;-68
2021/01/01 01:45:13;;;;;;;2.50;2.27;;;;;;;3.97;87.83;99997.84;5034877;28;20471;-66
2021/01/01 01:47:39;;;;;;;7.40;3.37;;;;;;;3.99;88.05;99997.59;5034753;28;20963;-68
2021/01/01 01:50:06;;;;;;;5.77;3.70;;;;;;;4.07;87.54;100010.41;5035192;28;20443;-68
2021/01/01 01:52:34;;;;;;;4.70;1.60;;;;;;;4.11;87.07;100003.44;5034647;28;20509;-72
2021/01/01 01:55:01;;;;;;;1.50;1.40;;;;;;;4.08;87.39;99995.97;5034644;28;20463;-67
2021/01/01 01:57:29;;;;;;;1.80;1.70;;;;;;;4.08;86.70;100001.31;5034619;28;20501;-68
2021/01/01 01:59:57;;;;;;;2.70;1.70;;;;;;;4.12;86.62;100002.38;5034462;28;20451;-69
2021/01/01 02:02:24;;;;;;;1.50;1.40;;;;;;;4.09;86.95;100000.25;5033849;28;20537;-69
2021/01/01 02:04:50;;;;;;;5.73;2.70;;;;;;;4.11;87.03;100008.00;5033885;28;20470;-69
2021/01/01 02:07:16;;;;;;;2.23;1.10;;;;;;;4.16;86.70;100003.44;5034120;28;20471;-68
2021/01/01 02:09:44;;;;;;;1.23;1.13;;;;;;;4.15;85.88;100006.38;5034356;28;20443;-67
2021/01/01 02:12:12;;;;;;;15.03;3.70;;;;;;;4.15;85.52;100007.19;5034186;28;20534;-69
2021/01/01 02:14:39;;;;;;;3.20;2.90;;;;;;;4.17;85.39;100013.09;5035004;28;20475;-69
2021/01/01 02:17:06;;;;;;;3.03;2.63;;;;;;;4.20;86.04;100017.09;5034010;28;20455;-68
2021/01/01 02:19:32;;;;;;;2.40;2.17;;;;;;;4.11;85.48;100011.47;5033742;28;20431;-69
2021/01/01 02:22:00;;;;;;;1.70;1.60;;;;;;;4.03;85.06;100010.19;5033869;28;20855;-68
2021/01/01 02:24:27;;;;;;;2.27;2.17;;;;;;;4.07;84.48;100014.97;5033900;28;20467;-69
2021/01/01 02:26:54;;;;;;;4.40;2.20;;;;;;;4.06;84.66;100011.50;5033984;28;20450;-69
2021/01/01 02:29:21;;;;;;;1.23;0.73;;;;;;;4.08;84.46;100004.00;5033663;28;20454;-66
2021/01/01 02:31:47;;;;;;;1.47;1.27;;;;;;;4.04;83.85;100010.97;5033111;28;20994;-69
2021/01/01 02:34:13;;;;;;;4.13;2.93;;;;;;;4.03;84.34;100012.06;5033631;28;20529;-69
2021/01/01 02:36:39;;;;;;;1.63;1.50;;;;;;;4.06;84.48;100008.81;5033772;28;20456;-70
2021/01/01 02:39:06;;;;;;;1.27;1.17;;;;;;;4.10;83.96;100003.72;5033739;28;20447;-69
2021/01/01 02:41:33;;;;;;;3.47;1.77;;;;;;;4.05;83.22;100009.91;5033619;28;20518;-69
2021/01/01 02:43:59;;;;;;;4.17;0.77;;;;;;;3.98;83.46;100006.69;5033567;28;20864;-68
2021/01/01 02:46:25;;;;;;;3.03;2.87;;;;;;;4.00;84.14;100015.28;5033617;28;20447;-69
2021/01/01 02:48:51;;;;;;;2.33;1.77;;;;;;;3.98;83.91;100012.84;5033601;28;20492;-68
2021/01/01 02:51:17;;;;;;;0.87;0.80;;;;;;;3.95;83.90;100008.06;5033544;28;20470;-68
2021/01/01 02:53:44;;;;;;;2.10;1.43;;;;;;;3.94;83.42;100022.53;5033087;28;20458;-68
2021/01/01 02:56:10;;;;;;;1.73;1.30;;;;;;;3.92;83.95;100016.63;5033161;28;20941;-68
2021/01/01 02:58:37;;;;;;;3.90;0.70;;;;;;;3.94;84.28;100010.97;5033117;28;20968;-68
2021/01/01 03:01:03;;;;;;;1.97;1.50;;;;;;;3.97;84.74;100021.16;5033168;28;20475;-69
2021/01/01 03:03:29;;;;;;;2.20;2.00;;;;;;;3.99;85.18;100017.16;5033011;28;21017;-69
2021/01/01 03:05:55;;;;;;;1.37;1.27;;;;;;;3.96;86.63;100019.56;5033348;28;21070;-68
2021/01/01 03:08:21;;;;;;;30.07;1.83;;;;;;;3.95;86.67;100017.97;5033379;28;20867;-68
2021/01/01 03:10:47;;;;;;;2.33;1.33;;;;;;;4.02;86.51;100013.91;5033161;28;20483;-69
2021/01/01 03:13:14;;;;;;;0.40;0.37;;;;;;;3.99;86.66;100013.69;5033063;28;20475;-68
2021/01/01 03:15:41;;;;;;;4.70;1.73;;;;;;;3.98;86.90;100017.41;5032896;28;20470;-69
2021/01/01 03:18:07;;;;;;;0.50;0.40;;;;;;;4.04;86.77;100008.31;5032958;28;20454;-67
2021/01/01 03:20:33;;;;;;;6.73;0.73;;;;;;;4.12;86.33;100013.09;5032861;28;20951;-69
2021/01/01 03:22:59;;;;;;;2.50;1.00;;;;;;;4.02;87.01;100002.41;5032851;28;20884;-69
2021/01/01 03:25:25;;;;;;;7.30;1.50;;;;;;;4.10;86.00;100001.84;5033096;28;20490;-69
2021/01/01 03:27:51;;;;;;;7.27;2.50;;;;;;;4.04;86.04;100006.41;5033197;28;20443;-68
2021/01/01 03:30:21;;;;;;;0.50;0.50;;;;;;;4.01;86.14;100003.47;5032773;28;20447;-67
2021/01/01 03:32:48;;;;;;;8.00;2.73;;;;;;;4.01;85.15;100000.78;5033093;28;20444;-68
2021/01/01 03:35:15;;;;;;;1.53;1.43;;;;;;;4.05;84.69;99996.50;5033031;28;20837;-68
2021/01/01 03:37:41;;;;;;;1.13;1.07;;;;;;;3.98;83.26;100001.31;5032442;28;20470;-69
2021/01/01 03:40:08;;;;;;;3.80;2.50;;;;;;;3.97;83.22;100000.53;5032672;28;20957;-67
2021/01/01 03:42:34;;;;;;;13.73;1.47;;;;;;;3.96;83.38;99995.47;5032958;28;20999;-68
2021/01/01 03:45:01;;;;;;;3.10;2.30;;;;;;;3.89;83.61;99997.59;5036684;28;20899;-69
2021/01/01 03:47:27;;;;;;;1.30;1.20;;;;;;;3.89;84.07;99997.59;5036818;28;20477;-69
2021/01/01 03:49:54;;;;;;;1.97;1.50;;;;;;;3.92;84.28;99994.38;5037101;28;20474;-68
2021/01/01 03:52:20;;;;;;;2.33;1.70;;;;;;;3.95;84.26;99991.19;5036670;28;20957;-69
2021/01/01 03:54:46;;;;;;;5.80;1.73;;;;;;;3.96;83.97;99993.56;5037128;28;20463;-71
2021/01/01 03:57:12;;;;;;;1.70;1.33;;;;;;;3.94;83.78;99989.56;5037161;28;20508;-71
2021/01/01 03:59:38;;;;;;;0.50;0.50;;;;;;;3.88;83.58;99988.75;5036794;28;20494;-67
2021/01/01 04:02:05;;;;;;;2.73;1.43;;;;;;;3.89;83.92;99984.22;5036646;28;20518;-67
2021/01/01 04:04:31;;;;;;;2.43;2.10;;;;;;;3.90;84.72;99983.97;5036336;28;20498;-66
2021/01/01 04:06:58;;;;;;;15.90;2.00;;;;;;;3.91;85.10;99982.88;5036668;28;20438;-67
2021/01/01 04:09:24;;;;;;;1.33;1.03;;;;;;;3.96;85.52;99987.41;5036412;28;20438;-66
2021/01/01 04:11:50;;;;;;;2.00;1.47;;;;;;;3.94;85.81;99995.75;5036246;28;20447;-67
2021/01/01 04:14:16;;;;;;;1.40;0.93;;;;;;;3.99;85.73;99994.91;5036149;28;21050;-66
2021/01/01 04:16:44;;;;;;;1.00;0.90;;;;;;;3.98;85.33;99985.25;5036463;28;20475;-67
2021/01/01 04:19:10;;;;;;;0.60;0.60;;;;;;;3.94;86.10;99998.41;5036420;28;20442;-67
2021/01/01 04:21:36;;;;;;;1.87;1.70;;;;;;;3.99;85.90;99997.59;5036029;28;20896;-68
2021/01/01 04:24:04;;;;;;;2.30;2.10;;;;;;;3.99;86.02;100001.06;5036112;28;20999;-68
2021/01/01 04:26:30;;;;;;;1.30;1.20;;;;;;;3.99;85.68;99992.25;5036065;28;20459;-66
2021/01/01 04:28:56;;;;;;;0.80;0.77;;;;;;;4.01;85.75;99990.09;5036275;28;20447;-67
2021/01/01 04:31:22;;;;;;;3.37;1.60;;;;;;;4.03;86.29;99998.66;5036190;28;20474;-66
2021/01/01 04:33:49;;;;;;;1.17;1.17;;;;;;;3.95;85.17;99996.53;5066728;22;20489;-77
2021/01/01 04:36:15;;;;;;;1.03;1.03;;;;;;;3.89;84.23;99995.72;5076903;28;20468;-78
2021/01/01 04:38:41;;;;;;;2.80;1.80;;;;;;;3.90;83.73;99994.66;5076670;28;20874;-78
2021/01/01 04:41:10;;;;;;;1.93;0.63;;;;;;;3.92;84.13;99997.88;5076716;28;20506;-77
2021/01/01 04:43:37;;;;;;;1.33;1.10;;;;;;;3.92;84.38;100002.44;5076605;28;20520;-78
2021/01/01 04:46:04;;;;;;;2.00;1.70;;;;;;;3.88;84.20;99996.00;5076071;28;20782;-78
2021/01/01 04:48:30;;;;;;;2.43;1.27;;;;;;;3.81;83.85;100004.34;5076926;28;20442;-78
2021/01/01 04:50:57;;;;;;;0.73;0.73;;;;;;;3.84;84.27;99997.63;5076912;28;20437;-78
2021/01/01 04:53:25;;;;;;;3.23;2.47;;;;;;;3.80;84.40;100000.03;5075939;28;20467;-77
2021/01/01 04:55:54;;;;;;;1.60;1.50;;;;;;;3.79;83.99;100003.78;5076409;28;20466;-77
2021/01/01 04:58:21;;;;;;;0.50;0.50;;;;;;;3.76;84.64;100005.16;5076128;28;20528;-77
2021/01/01 05:00:47;;;;;;;1.60;1.50;;;;;;;3.85;84.05;100007.25;5076478;28;20456;-77
2021/01/01 05:03:13;;;;;;;1.50;1.50;;;;;;;3.79;83.88;100004.59;5076052;28;20970;-77
2021/01/01 05:05:48;;;;;;;0.83;0.83;;;;;;;3.80;84.64;100006.19;5076356;28;20468;-77
2021/01/01 05:08:16;;;;;;;7.93;2.10;;;;;;;3.79;85.34;100009.16;5075929;28;20969;-77
2021/01/01 05:10:42;;;;;;;2.13;1.00;;;;;;;3.79;86.12;100009.16;5076250;28;20583;-77
2021/01/01 05:13:11;;;;;;;1.20;1.10;;;;;;;3.83;86.13;100012.88;5076479;28;20441;-78
2021/01/01 05:15:39;;;;;;;4.90;2.17;;;;;;;3.84;86.18;100005.66;5076120;28;20472;-78
2021/01/01 05:18:19;;;;;;;3.03;0.93;;;;;;;3.85;86.43;100009.94;5076288;28;20456;-78
2021/01/01 05:20:46;;;;;;;0.50;0.50;;;;;;;3.87;86.18;100021.19;5076231;28;20438;-77
2021/01/01 05:23:23;;;;;;;1.70;1.33;;;;;;;3.86;86.42;100015.03;5075603;28;20481;-78
2021/01/01 05:26:08;;;;;;;0.87;0.83;;;;;;;3.91;86.41;100022.25;5075843;28;20441;-78
2021/01/01 05:28:56;;;;;;;2.77;2.57;;;;;;;3.88;86.60;100017.44;5076140;28;20911;-78
2021/01/01 05:31:24;;;;;;;4.63;0.90;;;;;;;3.93;86.54;100017.41;5073100;28;20454;-78
2021/01/01 05:33:56;;;;;;;26.23;1.83;;;;;;;3.99;86.16;100025.19;5076092;28;20461;-78
2021/01/01 05:36:30;;;;;;;2.47;1.60;;;;;;;3.96;85.25;100015.00;5076042;28;20814;-78
2021/01/01 05:38:56;;;;;;;0.87;0.87;;;;;;;3.96;84.76;100014.22;5075773;28;20458;-78
2021/01/01 05:41:34;;;;;;;8.13;2.80;;;;;;;3.87;83.99;100010.47;5075913;28;20441;-78
2021/01/01 05:44:15;;;;;;;0.40;0.30;;;;;;;3.87;84.15;100018.50;5075530;28;20433;-78
2021/01/01 05:47:00;;;;;;;0.80;0.57;;;;;;;3.86;84.58;100016.91;5074505;28;20894;-78
2021/01/01 05:49:29;;;;;;;2.60;1.07;;;;;;;3.83;84.11;100018.25;5075651;28;20445;-78
2021/01/01 05:52:21;;;;;;;2.40;1.23;;;;;;;3.84;84.28;100027.88;5075526;28;20447;-78
2021/01/01 05:54:49;;;;;;;3.03;2.00;;;;;;;3.81;84.74;100031.13;5056345;28;20473;-78
2021/01/01 05:57:19;;;;;;;0.80;0.80;;;;;;;3.76;84.69;100023.06;5075559;28;20441;-78
2021/01/01 05:59:47;;;;;;;2.70;2.50;;;;;;;3.74;84.84;100035.94;5075427;28;20434;-78
2021/01/01 06:02:14;;;;;;;0.50;0.50;;;;;;;3.69;84.72;100031.38;5075671;28;20493;-78
2021/01/01 06:04:41;;;;;;;1.90;1.20;;;;;;;3.69;84.70;100034.06;5075617;28;20465;-78
2021/01/01 06:07:09;;;;;;;2.20;1.50;;;;;;;3.76;84.61;100034.59;5074453;28;20490;-78
2021/01/01 06:09:37;;;;;;;1.20;0.83;;;;;;;3.79;85.83;100041.28;5075632;28;20438;-78
2021/01/01 06:12:07;;;;;;;2.80;1.37;;;;;;;3.79;86.23;100041.28;5075550;28;20449;-78
2021/01/01 06:17:20;;;;;;;2.07;0.90;;;;;;;3.87;86.64;100037.25;5072746;28;20468;-64
2021/01/01 06:19:49;;;;;;;2.40;2.23;;;;;;;3.90;86.58;100044.78;5074043;28;20953;-65
2021/01/01 06:22:16;;;;;;;2.40;2.30;;;;;;;3.88;87.05;100050.38;5075628;28;20488;-65
2021/01/01 06:24:45;;;;;;;3.23;1.90;;;;;;;3.89;86.70;100045.81;5079311;28;20527;-66
2021/01/01 06:27:12;;;;;;;0.90;0.77;;;;;;;3.84;86.86;100049.31;5077512;28;20449;-65
2021/01/01 06:29:43;;;;;;;1.27;1.00;;;;;;;3.85;86.66;100055.47;5077083;28;20442;-64
2021/01/01 06:32:10;;;;;;;4.63;1.70;;;;;;;3.80;87.21;100062.44;5076418;28;20457;-66
2021/01/01 06:34:37;;;;;;;0.73;0.73;;;;;;;3.84;87.04;100059.22;5076489;28;20993;-65
2021/01/01 06:37:04;;;;;;;3.90;1.00;;;;;;;3.83;86.83;100073.69;5076688;28;20476;-66
2021/01/01 06:39:45;;;;;;;3.60;1.40;;;;;;;3.81;86.77;100071.31;5076506;28;21027;-65
2021/01/01 06:42:12;;;;;;;20.03;1.80;;;;;;;3.77;86.19;100070.22;5076887;28;21005;-66
2021/01/01 06:44:41;;;;;;;1.97;1.77;;;;;;;3.78;86.55;100072.63;5076693;28;20473;-65
2021/01/01 06:47:09;;;;;;;2.10;1.93;;;;;;;3.77;86.78;100076.38;5076105;28;20445;-65
2021/01/01 06:49:38;;;;;;;9.87;3.27;;;;;;;3.72;86.73;100071.03;5076559;28;20519;-65
2021/01/01 06:52:13;;;;;;;1.97;1.80;;;;;;;3.69;86.10;100071.56;5075593;28;20457;-65
2021/01/01 06:54:55;;;;;;;1.40;1.10;;;;;;;3.57;85.50;100076.38;5075639;28;20471;-64
2021/01/01 06:57:26;;;;;;;2.40;0.80;;;;;;;3.61;85.55;100073.97;5075589;28;20456;-63
2021/01/01 06:59:53;;;;;;;1.53;1.23;;;;;;;3.56;86.26;100074.78;5077206;28;20432;-63
2021/01/01 07:02:21;;;;;;;4.10;3.30;;;;;;;3.56;85.43;100079.31;5074291;28;20489;-63
2021/01/01 07:04:49;;;;;;;3.60;2.97;;;;;;;3.54;84.81;100079.56;5074786;28;20456;-63
2021/01/01 07:07:41;;;;;;;0.70;0.67;;;;;;;3.56;86.15;100084.69;5075827;28;20441;-67
2021/01/01 07:10:09;;;;;;;2.00;1.20;;;;;;;3.51;86.67;100086.28;5078067;28;20521;-63
2021/01/01 07:12:35;;;;;;;0.50;0.47;;;;;;;3.52;86.06;100089.75;5079648;28;20808;-64
2021/01/01 07:15:01;;;;;;;1.70;1.60;;;;;;;3.51;86.23;100090.84;5078934;28;20453;-64
2021/01/01 07:17:46;;;;;;;9.23;1.50;;;;;;;3.53;86.24;100096.72;5079057;28;20429;-64
2021/01/01 07:20:15;;;;;;;2.50;1.47;;;;;;;3.57;86.95;100103.16;5079381;28;20784;-64
2021/01/01 07:22:41;;;;;;;0.57;0.57;;;;;;;3.56;87.18;100100.75;5079331;28;21045;-65
2021/01/01 07:25:08;;;;;;;1.23;0.70;;;;;;;3.57;87.21;100105.81;5079160;28;20442;-65
2021/01/01 07:27:36;;;;;;;0.90;0.67;;;;;;;3.59;87.51;100101.03;5079011;28;20449;-64
2021/01/01 07:30:10;;;;;;;0.40;0.40;;;;;;;3.58;87.34;100104.75;5079758;28;20447;-63
2021/01/01 07:32:38;;;;;;;23.37;1.70;;;;;;;3.59;87.56;100110.94;5082902;28;20459;-63
2021/01/01 07:35:08;;;;;;;1.33;1.00;;;;;;;3.60;88.17;100116.00;5083046;28;20433;-64
2021/01/01 07:37:36;;;;;;;2.00;1.33;;;;;;;3.60;88.50;100115.22;5081593;28;20445;-63
2021/01/01 07:40:04;;;;;;;1.50;0.70;;;;;;;3.62;88.46;100121.09;5081774;28;20442;-63
2021/01/01 07:42:30;;;;;;;3.17;2.00;;;;;;;3.65;88.50;100121.38;5080582;28;20476;-63
2021/01/01 07:44:56;;;;;;;1.23;1.13;;;;;;;3.67;88.62;100116.53;5079460;28;20441;-63
2021/01/01 07:47:22;;;;;;;0.57;0.57;;;;;;;3.67;88.51;100123.78;5079620;28;20441;-64
2021/01/01 07:49:49;;;;;;;8.33;1.83;;;;;;;3.66;88.66;100122.97;5081335;28;20468;-64
2021/01/01 07:52:15;;;;;;;1.07;1.03;;;;;;;3.64;89.30;100114.41;5079716;28;20441;-65
2021/01/01 07:54:49;;;;;;;0.63;0.63;;;;;;;3.67;89.67;100118.41;5080560;28;20495;-64
2021/01/01 07:57:21;;;;;;;1.70;1.03;;;;;;;3.71;89.47;100124.84;5080447;28;20467;-64
2021/01/01 07:59:48;;;;;;;0.40;0.40;;;;;;;3.69;89.52;100121.66;5081027;28;20485;-63
2021/01/01 08:02:14;;;;;;;6.00;2.23;;;;;;;3.69;90.56;100133.16;5080514;28;20549;-64
2021/01/01 08:04:42;;;;;;;1.43;1.33;;;;;;;3.69;90.26;100133.16;5080204;28;20476;-64
2021/01/01 08:07:09;;;;;;;2.00;0.80;;;;;;;3.67;90.33;100129.94;5080815;28;20445;-64
2021/01/01 08:09:45;;;;;;;4.13;1.40;;;;;;;3.69;90.38;100135.84;5081902;28;20449;-64
2021/01/01 08:12:13;;;;;;;1.77;0.90;;;;;;;3.69;90.75;100127.00;5081816;28;20425;-64
2021/01/01 08:14:47;;;;;;;2.10;0.90;;;;;;;3.69;90.36;100135.03;5082018;28;20465;-64
2021/01/01 08:17:21;;;;;;;2.10;0.60;;;;;;;3.68;90.32;100142.28;5079908;28;20496;-65
2021/01/01 08:19:47;;;;;;;3.53;1.27;;;;;;;3.64;90.42;100133.16;5077784;28;20441;-64
2021/01/01 08:22:20;;;;;;;0.90;0.73;;;;;;;3.63;91.58;100130.72;5075863;28;20487;-65
2021/01/01 08:24:51;;;;;;;0.80;0.53;;;;;;;3.67;91.41;100137.97;5075663;28;20465;-64
2021/01/01 08:27:19;;;;;;;0.80;0.73;;;;;;;3.70;91.34;100139.31;5076049;28;20425;-64
2021/01/01 08:29:46;;;;;;;0.40;0.40;;;;;;;3.66;91.13;100135.56;5078079;28;20445;-64
2021/01/01 08:32:13;;;;;;;0.93;0.90;;;;;;;3.62;91.38;100137.97;5080169;28;20452;-64
2021/01/01 08:34:39;;;;;;;1.77;0.77;;;;;;;3.62;91.77;100137.16;5080396;28;20464;-64
2021/01/01 08:37:20;;;;;;;3.60;1.93;;;;;;;3.71;91.95;100149.75;5080661;28;20441;-65
2021/01/01 08:39:46;;;;;;;0.60;0.60;;;;;;;3.73;92.43;100152.97;5081441;28;20429;-64
2021/01/01 08:42:23;;;;;;;1.33;1.23;;;;;;;3.73;92.58;100152.97;5081401;28;20488;-65
2021/01/01 08:44:49;;;;;;;4.67;2.03;;;;;;;3.83;92.86;100154.84;5081204;28;20599;-65
2021/01/01 08:47:16;;;;;;;2.20;1.07;;;;;;;3.94;93.01;100159.16;5080978;28;20456;-65
2021/01/01 08:49:42;;;;;;;1.33;0.70;;;;;;;3.94;91.91;100166.38;5082903;28;20465;-64
2021/01/01 08:52:10;;;;;;;0.40;0.40;;;;;;;3.92;92.00;100163.97;5082472;28;20468;-65
2021/01/01 08:54:36;;;;;;;2.40;2.20;;;;;;;3.90;91.59;100170.69;5081622;28;20471;-65
2021/01/01 08:57:04;;;;;;;2.93;0.53;;;;;;;3.91;92.17;100173.09;5081362;28;20448;-63
2021/01/01 08:59:31;;;;;;;0.50;0.50;;;;;;;3.94;92.42;100177.09;5080109;28;20450;-63
2021/01/01 09:01:59;;;;;;;3.80;2.63;;;;;;;3.95;92.83;100176.84;5077186;28;20939;-63
2021/01/01 09:04:26;;;;;;;2.70;2.50;;;;;;;3.92;92.40;100180.03;5077445;28;20473;-65
2021/01/01 09:06:57;;;;;;;0.40;0.30;;;;;;;3.89;92.31;100179.78;5077855;28;20433;-63
2021/01/01 09:09:28;;;;;;;1.67;1.23;;;;;;;3.84;92.97;100182.44;5078296;28;20445;-63
2021/01/01 09:12:12;;;;;;;0.50;0.50;;;;;;;3.83;93.68;100180.84;5078640;28;20945;-64
2021/01/01 09:14:44;;;;;;;0.83;0.83;;;;;;;3.83;93.84;100183.53;5079413;28;20495;-64
2021/01/01 09:17:10;;;;;;;0.67;0.67;;;;;;;3.84;93.58;100185.94;5078656;28;20418;-64
2021/01/01 09:19:37;;;;;;;0.60;0.53;;;;;;;3.79;94.15;100188.59;5079438;28;20475;-64
2021/01/01 09:22:15;;;;;;;0.50;0.50;;;;;;;3.80;94.50;100196.38;5079663;28;20962;-64
2021/01/01 09:24:42;;;;;;;1.43;1.33;;;;;;;3.82;94.45;100187.28;5079415;28;20465;-64
2021/01/01 09:27:08;;;;;;;2.20;1.80;;;;;;;3.84;94.78;100188.59;5079701;28;20479;-64
2021/01/01 09:29:34;;;;;;;2.40;1.83;;;;;;;3.86;95.00;100204.44;5079834;28;20434;-63
2021/01/01 09:32:05;;;;;;;0.60;0.57;;;;;;;3.90;95.62;100192.13;5079770;28;20814;-64
2021/01/01 09:34:31;;;;;;;1.00;1.00;;;;;;;3.93;94.79;100194.25;5078556;28;20522;-64
2021/01/01 09:36:58;;;;;;;1.23;0.87;;;;;;;3.86;95.47;100194.53;5079142;28;20438;-63
2021/01/01 09:39:24;;;;;;;0.50;0.50;;;;;;;3.84;95.79;100203.88;5079128;28;20457;-63
2021/01/01 09:41:50;;;;;;;0.63;0.60;;;;;;;3.89;95.31;100201.19;5076605;28;20464;-63
2021/01/01 09:44:16;;;;;;;2.33;2.13;;;;;;;3.90;94.95;100197.47;5076585;28;20485;-64
2021/01/01 09:46:43;;;;;;;0.40;0.40;;;;;;;3.91;95.62;100209.78;5077381;28;20448;-64
2021/01/01 09:49:11;;;;;;;2.60;0.87;;;;;;;3.96;95.63;100207.91;5079264;28;20452;-64
2021/01/01 09:51:39;;;;;;;0.70;0.70;;;;;;;3.93;95.55;100207.63;5079909;28;20461;-63
2021/01/01 09:54:05;;;;;;;1.43;1.40;;;;;;;3.83;95.55;100213.00;5079779;28;20523;-64
2021/01/01 09:56:33;;;;;;;1.67;1.53;;;;;;;3.91;95.53;100204.44;5080302;28;20445;-65
2021/01/01 09:58:59;;;;;;;0.97;0.43;;;;;;;3.93;94.84;100210.31;5080377;28;20438;-63
2021/01/01 10:01:28;;;;;;;0.40;0.30;;;;;;;3.93;95.25;100203.09;5079643;28;20475;-63
2021/01/01 10:03:56;;;;;;;0.50;0.50;;;;;;;3.96;95.17;100212.47;5079598;28;20489;-64
2021/01/01 10:06:23;;;;;;;1.27;0.80;;;;;;;3.91;95.69;100207.91;5077685;28;20444;-65
2021/01/01 10:08:49;;;;;;;0.80;0.70;;;;;;;3.86;96.22;100209.78;5037422;28;20894;-64
2021/01/01 10:11:15;;;;;;;1.70;1.60;;;;;;;3.86;95.63;100210.59;5039754;28;20447;-65
2021/01/01 10:13:42;;;;;;;1.20;1.10;;;;;;;3.89;95.85;100203.88;5040604;28;20482;-64
2021/01/01 10:16:10;;;;;;;0.77;0.77;;;;;;;3.88;96.07;100202.28;5040508;28;20454;-65
2021/01/01 10:18:36;;;;;;;1.30;0.80;;;;;;;3.94;96.17;100212.75;5040898;28;20447;-65
2021/01/01 10:21:03;;;;;;;0.63;0.50;;;;;;;3.92;95.82;100211.41;5051435;28;20958;-66
2021/01/01 10:23:30;;;;;;;0.83;0.83;;;;;;;3.92;95.98;100216.75;5074042;28;20607;-66
2021/01/01 10:25:56;;;;;;;1.37;0.93;;;;;;;3.94;96.61;100212.75;5074279;28;20450;-66
2021/01/01 10:28:22;;;;;;;0.50;0.40;;;;;;;3.94;96.61;100211.91;5075425;28;20480;-66
2021/01/01 10:30:48;;;;;;;1.40;0.97;;;;;;;3.90;96.86;100213.56;5075320;28;20445;-67
2021/01/01 10:33:15;;;;;;;12.53;2.03;;;;;;;3.95;97.29;100224.28;5075354;28;20465;-66
2021/01/01 10:35:41;;;;;;;2.50;1.43;;;;;;;3.93;97.37;100213.81;5072540;22;20498;-78
2021/01/01 10:38:08;;;;;;;2.60;0.80;;;;;;;3.92;97.12;100214.06;5061999;28;20452;-78
2021/01/01 10:40:35;;;;;;;0.70;0.63;;;;;;;3.98;97.42;100218.34;5060972;28;20461;-79
2021/01/01 10:43:01;;;;;;;1.57;1.47;;;;;;;4.00;97.82;100211.69;5061371;28;20489;-79
2021/01/01 10:45:27;;;;;;;6.87;1.30;;;;;;;4.03;97.64;100213.84;5059904;28;20477;-78
2021/01/01 10:47:53;;;;;;;1.10;0.50;;;;;;;4.04;97.04;100210.06;5062768;28;20438;-79
2021/01/01 10:50:20;;;;;;;1.10;1.10;;;;;;;4.02;96.56;100212.19;5062417;28;20439;-78
2021/01/01 10:52:46;;;;;;;0.50;0.40;;;;;;;3.98;96.88;100210.31;5061978;28;20962;-78
2021/01/01 10:55:13;;;;;;;0.50;0.50;;;;;;;4.05;97.19;100210.88;5061757;28;20501;-78
2021/01/01 10:57:40;;;;;;;0.57;0.53;;;;;;;4.10;96.72;100208.19;5061545;28;20495;-78
2021/01/01 11:00:08;;;;;;;0.40;0.30;;;;;;;4.08;96.81;100213.03;5058190;28;20442;-78
2021/01/01 11:02:34;;;;;;;1.83;1.73;;;;;;;4.09;97.25;100214.63;5057840;28;20482;-78
2021/01/01 11:05:00;;;;;;;1.20;1.10;;;;;;;4.18;96.91;100212.22;5058008;28;20971;-78
2021/01/01 11:07:27;;;;;;;6.27;1.60;;;;;;;4.13;96.73;100213.03;5059985;28;20450;-79
2021/01/01 11:09:53;;;;;;;1.10;0.67;;;;;;;4.17;96.75;100214.09;5061790;28;20450;-79
2021/01/01 11:12:20;;;;;;;0.50;0.50;;;;;;;4.22;96.74;100211.44;5058592;28;20529;-78
2021/01/01 11:15:17;;;;;;;1.70;0.73;;;;;;;4.19;96.87;100216.50;5054464;28;20458;-79
2021/01/01 12:24:19;;;;;;;0.40;0.37;;;;;;;4.71;96.75;100207.38;5060294;28;20458;-78
2021/01/01 12:26:46;;;;;;;0.50;0.50;;;;;;;4.73;96.49;100206.00;5061709;28;20990;-78
2021/01/01 12:29:12;;;;;;;4.67;3.07;;;;;;;4.69;95.97;100207.66;5046354;28;20437;-78
2021/01/01 12:31:40;;;;;;;7.57;2.17;;;;;;;4.70;96.41;100206.56;5062615;28;20445;-78
2021/01/01 12:34:07;;;;;;;2.33;1.77;;;;;;;4.62;95.86;100212.47;5043436;28;20443;-78
2021/01/01 12:36:34;;;;;;;2.70;1.57;;;;;;;4.62;96.59;100212.47;5041885;28;20525;-78
2021/01/01 12:39:00;;;;;;;2.13;1.77;;;;;;;4.65;96.89;100214.63;5042025;28;20469;-80
2021/01/01 12:41:26;;;;;;;0.77;0.60;;;;;;;4.64;96.89;100213.00;5038990;28;20443;-78
2021/01/01 12:43:52;;;;;;;1.17;1.10;;;;;;;4.67;96.91;100217.03;5039912;28;21069;-78
2021/01/01 12:46:19;;;;;;;0.40;0.30;;;;;;;4.66;96.37;100215.44;5040559;28;20493;-78